Terminal Aerodrome Forecast
Issued by NWS

Current Version | Previous Version | Text Only | Print | Product List | Glossary Off
Versions: 1 2 3 4 5 6 7 8 9 10 11 12 13 14 15

000
FTUS41 KPBZ 312320
TAFHLG
TAF
KHLG 312320Z 0100/0124 31003KT P6SM SKC
     FM010800 00000KT 2SM BR SKC
     FM011400 26006KT P6SM SCT040=

USA.gov is the U.S. government's official web portal to all federal, state and local government web resources and services.